sensor_id;sensor_type;location;lat;lon;timestamp;pressure;altitude;pressure_sealevel;temperature;humidity
68996;BME280;56056;48.990;12.146;2023-12-22T00:02:09;96124.34;;;11.34;57.24
68996;BME280;56056;48.990;12.146;2023-12-22T00:04:35;96103.03;;;11.42;57.31
68996;BME280;56056;48.990;12.146;2023-12-22T00:07:01;96101.72;;;11.33;57.61
68996;BME280;56056;48.990;12.146;2023-12-22T00:09:27;96121.75;;;11.09;57.21
68996;BME280;56056;48.990;12.146;2023-12-22T00:11:53;96125.88;;;10.98;57.81
68996;BME280;56056;48.990;12.146;2023-12-22T00:14:19;96133.38;;;10.94;57.77
68996;BME280;56056;48.990;12.146;2023-12-22T00:16:44;96137.59;;;10.70;57.59
68996;BME280;56056;48.990;12.146;2023-12-22T00:19:12;96145.50;;;11.14;56.14
68996;BME280;56056;48.990;12.146;2023-12-22T00:21:38;96152.44;;;11.08;56.20
68996;BME280;56056;48.990;12.146;2023-12-22T00:24:04;96153.78;;;10.92;55.62
68996;BME280;56056;48.990;12.146;2023-12-22T00:26:30;96153.09;;;11.04;55.46
68996;BME280;56056;48.990;12.146;2023-12-22T00:28:56;96167.22;;;10.71;54.69
68996;BME280;56056;48.990;12.146;2023-12-22T00:31:22;96153.69;;;10.99;53.89
68996;BME280;56056;48.990;12.146;2023-12-22T00:33:48;96153.69;;;10.74;54.32
68996;BME280;56056;48.990;12.146;2023-12-22T00:36:16;96156.38;;;10.61;54.85
68996;BME280;56056;48.990;12.146;2023-12-22T00:38:44;96152.78;;;10.62;55.91
68996;BME280;56056;48.990;12.146;2023-12-22T00:41:10;96164.09;;;10.56;55.05
68996;BME280;56056;48.990;12.146;2023-12-22T00:43:36;96138.09;;;10.54;55.90
68996;BME280;56056;48.990;12.146;2023-12-22T00:46:02;96152.50;;;10.38;55.68
68996;BME280;56056;48.990;12.146;2023-12-22T00:48:28;96158.47;;;10.52;55.88
68996;BME280;56056;48.990;12.146;2023-12-22T00:50:54;96157.28;;;10.80;56.42
68996;BME280;56056;48.990;12.146;2023-12-22T00:53:21;96146.41;;;10.76;55.99
68996;BME280;56056;48.990;12.146;2023-12-22T00:55:47;96154.41;;;10.56;56.39
68996;BME280;56056;48.990;12.146;2023-12-22T00:58:13;96147.19;;;10.51;56.13
68996;BME280;56056;48.990;12.146;2023-12-22T01:00:39;96143.28;;;10.29;56.96
68996;BME280;56056;48.990;12.146;2023-12-22T01:03:04;96148.06;;;10.39;56.86
68996;BME280;56056;48.990;12.146;2023-12-22T01:05:30;96150.13;;;10.30;57.44
68996;BME280;56056;48.990;12.146;2023-12-22T01:07:56;96130.38;;;10.27;58.42
68996;BME280;56056;48.990;12.146;2023-12-22T01:10:23;96145.09;;;10.60;57.90
68996;BME280;56056;48.990;12.146;2023-12-22T01:12:49;96134.91;;;10.07;58.03
68996;BME280;56056;48.990;12.146;2023-12-22T01:15:15;96116.75;;;10.05;59.03
68996;BME280;56056;48.990;12.146;2023-12-22T01:17:41;96123.78;;;10.12;60.04
68996;BME280;56056;48.990;12.146;2023-12-22T01:20:08;96136.41;;;10.21;59.75
68996;BME280;56056;48.990;12.146;2023-12-22T01:22:34;96148.16;;;10.12;59.21
68996;BME280;56056;48.990;12.146;2023-12-22T01:25:04;96148.56;;;10.16;60.00
68996;BME280;56056;48.990;12.146;2023-12-22T01:27:32;96159.28;;;10.08;60.45
68996;BME280;56056;48.990;12.146;2023-12-22T01:29:58;96167.13;;;10.08;60.92
68996;BME280;56056;48.990;12.146;2023-12-22T01:32:24;96165.06;;;10.16;60.52
68996;BME280;56056;48.990;12.146;2023-12-22T01:34:50;96166.53;;;10.05;60.17
68996;BME280;56056;48.990;12.146;2023-12-22T01:37:15;96183.00;;;10.19;60.21
68996;BME280;56056;48.990;12.146;2023-12-22T01:39:41;96177.94;;;10.24;59.94
68996;BME280;56056;48.990;12.146;2023-12-22T01:42:07;96178.59;;;10.13;60.90
68996;BME280;56056;48.990;12.146;2023-12-22T01:44:35;96189.94;;;10.00;61.71
68996;BME280;56056;48.990;12.146;2023-12-22T01:47:00;96191.13;;;9.98;61.58
68996;BME280;56056;48.990;12.146;2023-12-22T01:49:27;96167.00;;;9.89;62.32
68996;BME280;56056;48.990;12.146;2023-12-22T01:51:55;96183.91;;;10.00;61.87
68996;BME280;56056;48.990;12.146;2023-12-22T01:54:21;96199.78;;;10.05;62.68
68996;BME280;56056;48.990;12.146;2023-12-22T01:56:47;96185.56;;;9.88;62.39
68996;BME280;56056;48.990;12.146;2023-12-22T01:59:13;96200.22;;;9.95;62.60
68996;BME280;56056;48.990;12.146;2023-12-22T02:01:41;96198.47;;;9.76;64.28
68996;BME280;56056;48.990;12.146;2023-12-22T02:04:10;96198.16;;;10.11;64.07
68996;BME280;56056;48.990;12.146;2023-12-22T02:06:36;96192.16;;;9.90;64.81
68996;BME280;56056;48.990;12.146;2023-12-22T02:09:02;96198.97;;;10.11;63.85
68996;BME280;56056;48.990;12.146;2023-12-22T02:11:29;96197.34;;;10.10;63.99
68996;BME280;56056;48.990;12.146;2023-12-22T02:13:55;96201.47;;;9.79;64.69
68996;BME280;56056;48.990;12.146;2023-12-22T02:16:31;96211.06;;;10.05;64.74
68996;BME280;56056;48.990;12.146;2023-12-22T02:19:07;96205.66;;;10.00;65.13
68996;BME280;56056;48.990;12.146;2023-12-22T02:21:35;96192.22;;;9.84;64.65
68996;BME280;56056;48.990;12.146;2023-12-22T02:24:03;96199.22;;;9.90;65.09
68996;BME280;56056;48.990;12.146;2023-12-22T02:26:34;96189.59;;;9.77;65.60
68996;BME280;56056;48.990;12.146;2023-12-22T02:29:02;96183.09;;;9.93;66.25
68996;BME280;56056;48.990;12.146;2023-12-22T02:31:35;96178.94;;;9.72;66.84
68996;BME280;56056;48.990;12.146;2023-12-22T02:34:05;96191.59;;;9.88;66.57
68996;BME280;56056;48.990;12.146;2023-12-22T02:36:35;96177.69;;;9.88;66.34
68996;BME280;56056;48.990;12.146;2023-12-22T02:39:04;96171.22;;;9.90;66.43
68996;BME280;56056;48.990;12.146;2023-12-22T02:41:31;96162.72;;;10.01;66.87
68996;BME280;56056;48.990;12.146;2023-12-22T02:43:57;96166.38;;;9.87;67.94
68996;BME280;56056;48.990;12.146;2023-12-22T02:46:23;96174.84;;;9.89;67.84
68996;BME280;56056;48.990;12.146;2023-12-22T02:48:49;96185.75;;;9.86;67.79
68996;BME280;56056;48.990;12.146;2023-12-22T02:51:15;96200.91;;;9.64;68.37
68996;BME280;56056;48.990;12.146;2023-12-22T02:53:40;96205.09;;;9.85;67.97
68996;BME280;56056;48.990;12.146;2023-12-22T02:56:08;96211.91;;;9.99;67.35
68996;BME280;56056;48.990;12.146;2023-12-22T02:58:34;96208.94;;;9.69;68.75
68996;BME280;56056;48.990;12.146;2023-12-22T03:01:00;96193.91;;;9.31;69.48
68996;BME280;56056;48.990;12.146;2023-12-22T03:03:25;96186.22;;;9.50;68.76
68996;BME280;56056;48.990;12.146;2023-12-22T03:05:51;96202.91;;;9.62;70.61
68996;BME280;56056;48.990;12.146;2023-12-22T03:08:17;96194.22;;;9.82;69.59
68996;BME280;56056;48.990;12.146;2023-12-22T03:10:43;96185.56;;;9.68;70.53
68996;BME280;56056;48.990;12.146;2023-12-22T03:13:11;96207.56;;;9.53;71.41
68996;BME280;56056;48.990;12.146;2023-12-22T03:15:36;96206.56;;;9.48;72.17
68996;BME280;56056;48.990;12.146;2023-12-22T03:18:03;96211.59;;;9.49;72.10
68996;BME280;56056;48.990;12.146;2023-12-22T03:20:29;96208.16;;;9.69;71.61
68996;BME280;56056;48.990;12.146;2023-12-22T03:22:55;96210.78;;;9.55;72.27
68996;BME280;56056;48.990;12.146;2023-12-22T03:25:21;96221.66;;;9.72;71.10
68996;BME280;56056;48.990;12.146;2023-12-22T03:27:47;96165.69;;;9.53;71.62
68996;BME280;56056;48.990;12.146;2023-12-22T03:30:14;96200.25;;;9.82;71.07
68996;BME280;56056;48.990;12.146;2023-12-22T03:32:40;96205.53;;;9.69;70.94
68996;BME280;56056;48.990;12.146;2023-12-22T03:35:06;96213.53;;;9.87;71.21
68996;BME280;56056;48.990;12.146;2023-12-22T03:37:32;96205.91;;;9.79;70.65
68996;BME280;56056;48.990;12.146;2023-12-22T03:39:58;96206.28;;;9.89;69.46
68996;BME280;56056;48.990;12.146;2023-12-22T03:42:24;96217.59;;;9.70;69.71
68996;BME280;56056;48.990;12.146;2023-12-22T03:44:50;96234.91;;;9.77;69.92
68996;BME280;56056;48.990;12.146;2023-12-22T03:47:17;96228.44;;;9.87;70.07
68996;BME280;56056;48.990;12.146;2023-12-22T03:49:43;96233.53;;;9.68;69.81
68996;BME280;56056;48.990;12.146;2023-12-22T03:52:09;96227.44;;;9.88;69.72
68996;BME280;56056;48.990;12.146;2023-12-22T03:54:35;96234.13;;;9.84;70.11
68996;BME280;56056;48.990;12.146;2023-12-22T03:57:00;96256.84;;;9.96;70.23
68996;BME280;56056;48.990;12.146;2023-12-22T03:59:26;96251.03;;;9.88;70.01
68996;BME280;56056;48.990;12.146;2023-12-22T04:01:52;96236.13;;;9.75;71.14
68996;BME280;56056;48.990;12.146;2023-12-22T04:04:20;96243.00;;;9.56;70.57
68996;BME280;56056;48.990;12.146;2023-12-22T04:06:48;96248.84;;;9.65;70.69
68996;BME280;56056;48.990;12.146;2023-12-22T04:09:14;96245.41;;;9.71;70.39
68996;BME280;56056;48.990;12.146;2023-12-22T04:11:40;96245.00;;;9.67;71.23
68996;BME280;56056;48.990;12.146;2023-12-22T04:14:07;96260.50;;;9.62;72.63
68996;BME280;56056;48.990;12.146;2023-12-22T04:16:34;96258.31;;;9.72;71.34
68996;BME280;56056;48.990;12.146;2023-12-22T04:19:01;96255.50;;;9.61;71.40
68996;BME280;56056;48.990;12.146;2023-12-22T04:21:29;96264.34;;;9.40;72.35
68996;BME280;56056;48.990;12.146;2023-12-22T04:23:55;96272.41;;;9.18;72.66
68996;BME280;56056;48.990;12.146;2023-12-22T04:26:21;96272.59;;;9.30;72.77
68996;BME280;56056;48.990;12.146;2023-12-22T04:28:46;96275.00;;;9.25;74.38
68996;BME280;56056;48.990;12.146;2023-12-22T04:31:12;96258.09;;;9.21;74.61
68996;BME280;56056;48.990;12.146;2023-12-22T04:33:38;96266.31;;;8.98;76.09
68996;BME280;56056;48.990;12.146;2023-12-22T04:36:05;96269.53;;;8.93;75.97
68996;BME280;56056;48.990;12.146;2023-12-22T04:38:32;96274.34;;;8.90;78.29
68996;BME280;56056;48.990;12.146;2023-12-22T04:40:58;96272.38;;;8.98;77.08
68996;BME280;56056;48.990;12.146;2023-12-22T04:43:23;96265.72;;;9.02;77.44
68996;BME280;56056;48.990;12.146;2023-12-22T04:45:49;96277.59;;;8.98;76.92
68996;BME280;56056;48.990;12.146;2023-12-22T04:48:15;96263.50;;;9.13;76.46
68996;BME280;56056;48.990;12.146;2023-12-22T04:50:41;96272.19;;;9.06;77.09
68996;BME280;56056;48.990;12.146;2023-12-22T04:53:07;96274.56;;;8.88;77.69
68996;BME280;56056;48.990;12.146;2023-12-22T04:55:34;96275.56;;;9.00;75.84
68996;BME280;56056;48.990;12.146;2023-12-22T04:58:00;96285.03;;;9.01;75.80
68996;BME280;56056;48.990;12.146;2023-12-22T05:00:26;96280.16;;;8.85;76.87
68996;BME280;56056;48.990;12.146;2023-12-22T05:02:52;96288.00;;;8.85;77.85
68996;BME280;56056;48.990;12.146;2023-12-22T05:05:18;96287.25;;;9.04;76.88
68996;BME280;56056;48.990;12.146;2023-12-22T05:07:44;96290.47;;;9.13;76.64
68996;BME280;56056;48.990;12.146;2023-12-22T05:10:10;96300.53;;;9.10;76.18
68996;BME280;56056;48.990;12.146;2023-12-22T05:12:37;96285.06;;;9.28;75.86
68996;BME280;56056;48.990;12.146;2023-12-22T05:15:04;96301.75;;;9.20;74.66
68996;BME280;56056;48.990;12.146;2023-12-22T05:17:30;96300.59;;;9.29;75.29
68996;BME280;56056;48.990;12.146;2023-12-22T05:19:56;96307.22;;;9.25;73.75
68996;BME280;56056;48.990;12.146;2023-12-22T05:22:21;96308.63;;;9.35;74.87
68996;BME280;56056;48.990;12.146;2023-12-22T05:24:47;96295.31;;;9.16;73.23
68996;BME280;56056;48.990;12.146;2023-12-22T05:27:14;96294.34;;;9.37;73.35
68996;BME280;56056;48.990;12.146;2023-12-22T05:29:41;96291.13;;;9.22;73.43
68996;BME280;56056;48.990;12.146;2023-12-22T05:32:07;96292.72;;;9.23;74.67
68996;BME280;56056;48.990;12.146;2023-12-22T05:34:33;96305.00;;;9.22;73.34
68996;BME280;56056;48.990;12.146;2023-12-22T05:36:59;96300.34;;;9.04;74.95
68996;BME280;56056;48.990;12.146;2023-12-22T05:39:25;96300.53;;;9.03;73.38
68996;BME280;56056;48.990;12.146;2023-12-22T05:41:51;96308.56;;;9.01;73.70
68996;BME280;56056;48.990;12.146;2023-12-22T05:44:17;96306.81;;;9.22;73.11
68996;BME280;56056;48.990;12.146;2023-12-22T05:46:44;96302.59;;;9.34;72.29
68996;BME280;56056;48.990;12.146;2023-12-22T05:49:10;96309.63;;;9.27;72.38
68996;BME280;56056;48.990;12.146;2023-12-22T05:51:39;96302.00;;;9.45;72.07
68996;BME280;56056;48.990;12.146;2023-12-22T05:54:06;96310.84;;;9.44;71.62
68996;BME280;56056;48.990;12.146;2023-12-22T05:56:32;96301.22;;;9.45;72.26
68996;BME280;56056;48.990;12.146;2023-12-22T05:58:59;96312.69;;;9.37;72.34
68996;BME280;56056;48.990;12.146;2023-12-22T06:01:25;96315.50;;;9.49;70.47
68996;BME280;56056;48.990;12.146;2023-12-22T06:03:52;96309.25;;;9.70;69.16
68996;BME280;56056;48.990;12.146;2023-12-22T06:06:19;96315.88;;;9.39;70.08
68996;BME280;56056;48.990;12.146;2023-12-22T06:08:45;96317.31;;;9.62;68.89
68996;BME280;56056;48.990;12.146;2023-12-22T06:11:11;96312.88;;;9.69;68.38
68996;BME280;56056;48.990;12.146;2023-12-22T06:13:37;96319.31;;;9.73;68.11
68996;BME280;56056;48.990;12.146;2023-12-22T06:16:03;96296.94;;;11.13;63.06
68996;BME280;56056;48.990;12.146;2023-12-22T06:18:29;96311.69;;;9.45;67.59
68996;BME280;56056;48.990;12.146;2023-12-22T06:20:56;96324.34;;;9.68;69.26
68996;BME280;56056;48.990;12.146;2023-12-22T06:23:22;96315.28;;;9.50;68.72
68996;BME280;56056;48.990;12.146;2023-12-22T06:25:48;96319.50;;;9.71;68.22
68996;BME280;56056;48.990;12.146;2023-12-22T06:28:14;96309.88;;;9.72;68.52
68996;BME280;56056;48.990;12.146;2023-12-22T06:30:42;96315.09;;;9.72;69.12
68996;BME280;56056;48.990;12.146;2023-12-22T06:33:09;96313.06;;;9.67;68.72
68996;BME280;56056;48.990;12.146;2023-12-22T06:35:35;96324.34;;;9.54;70.09
68996;BME280;56056;48.990;12.146;2023-12-22T06:38:04;96315.88;;;9.39;70.85
68996;BME280;56056;48.990;12.146;2023-12-22T06:40:32;96324.94;;;9.83;70.73
68996;BME280;56056;48.990;12.146;2023-12-22T06:42:57;96322.75;;;9.67;69.78
68996;BME280;56056;48.990;12.146;2023-12-22T06:45:23;96342.47;;;9.96;69.72
68996;BME280;56056;48.990;12.146;2023-12-22T06:47:49;96344.50;;;9.80;69.88
68996;BME280;56056;48.990;12.146;2023-12-22T06:50:15;96342.47;;;10.02;69.05
68996;BME280;56056;48.990;12.146;2023-12-22T06:52:41;96354.59;;;9.84;70.38
68996;BME280;56056;48.990;12.146;2023-12-22T06:55:09;96341.69;;;9.95;69.60
68996;BME280;56056;48.990;12.146;2023-12-22T06:57:35;96345.72;;;9.78;68.35
68996;BME280;56056;48.990;12.146;2023-12-22T07:00:01;96346.94;;;9.69;69.04
68996;BME280;56056;48.990;12.146;2023-12-22T07:02:27;96357.19;;;9.77;69.34
68996;BME280;56056;48.990;12.146;2023-12-22T07:05:02;96353.75;;;9.96;69.27
68996;BME280;56056;48.990;12.146;2023-12-22T07:07:32;96343.28;;;9.96;70.42
68996;BME280;56056;48.990;12.146;2023-12-22T07:09:57;96358.19;;;10.16;69.83
68996;BME280;56056;48.990;12.146;2023-12-22T07:12:25;96358.00;;;9.64;70.59
68996;BME280;56056;48.990;12.146;2023-12-22T07:14:50;96359.22;;;9.68;70.74
68996;BME280;56056;48.990;12.146;2023-12-22T07:17:16;96375.06;;;9.40;70.61
68996;BME280;56056;48.990;12.146;2023-12-22T07:19:42;96372.25;;;9.35;70.59
68996;BME280;56056;48.990;12.146;2023-12-22T07:22:08;96386.34;;;9.47;71.98
68996;BME280;56056;48.990;12.146;2023-12-22T07:24:34;96385.16;;;9.63;71.79
68996;BME280;56056;48.990;12.146;2023-12-22T07:27:00;96381.16;;;9.74;72.06
68996;BME280;56056;48.990;12.146;2023-12-22T07:29:28;96386.38;;;9.54;72.59
68996;BME280;56056;48.990;12.146;2023-12-22T07:31:54;96393.63;;;9.45;73.84
68996;BME280;56056;48.990;12.146;2023-12-22T07:34:19;96387.34;;;9.40;73.34
68996;BME280;56056;48.990;12.146;2023-12-22T07:36:48;96407.28;;;9.47;73.20
68996;BME280;56056;48.990;12.146;2023-12-22T07:39:13;96396.00;;;9.40;73.19
68996;BME280;56056;48.990;12.146;2023-12-22T07:41:40;96400.84;;;9.43;73.70
68996;BME280;56056;48.990;12.146;2023-12-22T07:44:06;96410.13;;;9.46;72.54
68996;BME280;56056;48.990;12.146;2023-12-22T07:46:33;96393.19;;;9.35;73.81
68996;BME280;56056;48.990;12.146;2023-12-22T07:48:59;96401.88;;;9.62;71.61
68996;BME280;56056;48.990;12.146;2023-12-22T07:51:25;96408.56;;;9.78;70.31
68996;BME280;56056;48.990;12.146;2023-12-22T07:53:51;96398.47;;;9.75;70.86
68996;BME280;56056;48.990;12.146;2023-12-22T07:56:17;96401.72;;;9.77;70.38
68996;BME280;56056;48.990;12.146;2023-12-22T07:58:42;96412.59;;;9.94;69.74
68996;BME280;56056;48.990;12.146;2023-12-22T08:01:08;96405.34;;;10.02;68.77
68996;BME280;56056;48.990;12.146;2023-12-22T08:03:36;96410.19;;;10.05;68.90
68996;BME280;56056;48.990;12.146;2023-12-22T08:06:03;96416.63;;;9.96;69.32
68996;BME280;56056;48.990;12.146;2023-12-22T08:08:29;96415.00;;;10.02;69.40
68996;BME280;56056;48.990;12.146;2023-12-22T08:10:55;96434.78;;;10.11;68.87
68996;BME280;56056;48.990;12.146;2023-12-22T08:13:21;96435.78;;;10.37;68.14
68996;BME280;56056;48.990;12.146;2023-12-22T08:15:47;96441.25;;;10.35;69.16
68996;BME280;56056;48.990;12.146;2023-12-22T08:18:13;96449.88;;;10.69;68.33
68996;BME280;56056;48.990;12.146;2023-12-22T08:20:40;96432.34;;;10.56;68.39
68996;BME280;56056;48.990;12.146;2023-12-22T08:23:06;96438.81;;;10.47;68.60
68996;BME280;56056;48.990;12.146;2023-12-22T08:25:32;96450.28;;;10.52;68.75
68996;BME280;56056;48.990;12.146;2023-12-22T08:27:58;96464.59;;;10.70;69.73
68996;BME280;56056;48.990;12.146;2023-12-22T08:30:24;96460.19;;;10.50;71.79
68996;BME280;56056;48.990;12.146;2023-12-22T08:32:50;96458.38;;;10.44;72.38
68996;BME280;56056;48.990;12.146;2023-12-22T08:35:16;96455.78;;;10.38;72.87
68996;BME280;56056;48.990;12.146;2023-12-22T08:37:43;96453.31;;;10.16;72.76
68996;BME280;56056;48.990;12.146;2023-12-22T08:40:10;96462.19;;;10.48;73.83
68996;BME280;56056;48.990;12.146;2023-12-22T08:42:36;96460.59;;;10.54;72.86
68996;BME280;56056;48.990;12.146;2023-12-22T08:45:02;96460.78;;;10.26;72.91
68996;BME280;56056;48.990;12.146;2023-12-22T08:47:28;96461.00;;;10.58;71.39
68996;BME280;56056;48.990;12.146;2023-12-22T08:49:54;96458.13;;;10.79;71.38
68996;BME280;56056;48.990;12.146;2023-12-22T08:52:20;96452.09;;;10.72;70.73
68996;BME280;56056;48.990;12.146;2023-12-22T08:54:47;96456.06;;;11.01;69.26
68996;BME280;56056;48.990;12.146;2023-12-22T08:57:13;96466.09;;;11.11;68.10
68996;BME280;56056;48.990;12.146;2023-12-22T08:59:39;96465.53;;;11.09;67.97
68996;BME280;56056;48.990;12.146;2023-12-22T09:02:05;96465.34;;;10.97;69.35
68996;BME280;56056;48.990;12.146;2023-12-22T09:04:31;96461.53;;;10.93;68.68
68996;BME280;56056;48.990;12.146;2023-12-22T09:06:57;96456.81;;;11.15;67.46
68996;BME280;56056;48.990;12.146;2023-12-22T09:09:23;96468.31;;;11.14;66.66
68996;BME280;56056;48.990;12.146;2023-12-22T09:11:51;96472.78;;;11.13;68.30
68996;BME280;56056;48.990;12.146;2023-12-22T09:14:17;96494.31;;;11.29;66.99
68996;BME280;56056;48.990;12.146;2023-12-22T09:16:44;96501.00;;;11.31;68.23
68996;BME280;56056;48.990;12.146;2023-12-22T09:19:11;96503.72;;;10.85;70.62
68996;BME280;56056;48.990;12.146;2023-12-22T09:21:37;96492.88;;;10.61;73.86
68996;BME280;56056;48.990;12.146;2023-12-22T09:24:03;96498.50;;;10.58;74.98
68996;BME280;56056;48.990;12.146;2023-12-22T09:26:31;96489.00;;;10.77;75.92
68996;BME280;56056;48.990;12.146;2023-12-22T09:28:58;96493.28;;;10.65;74.56
68996;BME280;56056;48.990;12.146;2023-12-22T09:31:24;96499.50;;;10.70;75.99
68996;BME280;56056;48.990;12.146;2023-12-22T09:33:50;96480.31;;;10.03;75.95
68996;BME280;56056;48.990;12.146;2023-12-22T09:36:15;96508.38;;;10.29;79.55
68996;BME280;56056;48.990;12.146;2023-12-22T09:38:41;96512.63;;;10.44;79.74
68996;BME280;56056;48.990;12.146;2023-12-22T09:41:08;96522.31;;;10.50;77.93
68996;BME280;56056;48.990;12.146;2023-12-22T09:43:35;96515.44;;;10.49;79.74
68996;BME280;56056;48.990;12.146;2023-12-22T09:46:04;96500.53;;;10.36;78.63
68996;BME280;56056;48.990;12.146;2023-12-22T09:48:31;96498.50;;;10.51;78.48
68996;BME280;56056;48.990;12.146;2023-12-22T09:51:01;96473.72;;;10.54;78.42
68996;BME280;56056;48.990;12.146;2023-12-22T09:53:29;96463.41;;;10.52;78.36
68996;BME280;56056;48.990;12.146;2023-12-22T09:55:58;96466.59;;;10.81;77.26
68996;BME280;56056;48.990;12.146;2023-12-22T09:58:25;96493.44;;;10.83;75.14
68996;BME280;56056;48.990;12.146;2023-12-22T10:00:51;96486.75;;;10.87;74.99
68996;BME280;56056;48.990;12.146;2023-12-22T10:03:19;96481.16;;;10.77;75.15
68996;BME280;56056;48.990;12.146;2023-12-22T10:05:46;96494.84;;;10.86;74.45
68996;BME280;56056;48.990;12.146;2023-12-22T10:08:13;96478.69;;;10.89;74.00
68996;BME280;56056;48.990;12.146;2023-12-22T10:10:39;96462.97;;;10.89;73.85
68996;BME280;56056;48.990;12.146;2023-12-22T10:13:14;96465.06;;;11.18;71.35
68996;BME280;56056;48.990;12.146;2023-12-22T10:15:41;96464.09;;;11.19;71.34
68996;BME280;56056;48.990;12.146;2023-12-22T10:18:09;96465.34;;;11.04;69.53
68996;BME280;56056;48.990;12.146;2023-12-22T10:20:37;96454.78;;;11.17;68.82
68996;BME280;56056;48.990;12.146;2023-12-22T10:23:03;96442.03;;;11.27;67.80
68996;BME280;56056;48.990;12.146;2023-12-22T10:25:29;96444.38;;;11.42;67.72
68996;BME280;56056;48.990;12.146;2023-12-22T10:27:56;96442.00;;;11.34;67.53
68996;BME280;56056;48.990;12.146;2023-12-22T10:30:22;96442.19;;;11.39;68.29
68996;BME280;56056;48.990;12.146;2023-12-22T10:32:50;96424.09;;;11.17;68.21
68996;BME280;56056;48.990;12.146;2023-12-22T10:35:17;96437.44;;;11.16;69.39
68996;BME280;56056;48.990;12.146;2023-12-22T10:37:45;96452.31;;;11.29;69.38
68996;BME280;56056;48.990;12.146;2023-12-22T10:40:13;96442.84;;;11.27;70.12
68996;BME280;56056;48.990;12.146;2023-12-22T10:42:40;96455.59;;;11.11;71.36
68996;BME280;56056;48.990;12.146;2023-12-22T10:45:08;96468.22;;;10.82;74.80
68996;BME280;56056;48.990;12.146;2023-12-22T10:47:34;96439.19;;;10.64;78.62
68996;BME280;56056;48.990;12.146;2023-12-22T10:50:02;96447.28;;;10.69;79.10
68996;BME280;56056;48.990;12.146;2023-12-22T10:52:29;96464.59;;;10.76;79.08
68996;BME280;56056;48.990;12.146;2023-12-22T10:54:57;96455.09;;;10.82;78.50
68996;BME280;56056;48.990;12.146;2023-12-22T10:57:23;96456.91;;;10.82;79.77
68996;BME280;56056;48.990;12.146;2023-12-22T10:59:49;96443.56;;;10.90;77.63
68996;BME280;56056;48.990;12.146;2023-12-22T11:02:17;96437.38;;;10.64;79.90
68996;BME280;56056;48.990;12.146;2023-12-22T11:04:50;96462.56;;;10.72;79.24
68996;BME280;56056;48.990;12.146;2023-12-22T11:07:24;96464.00;;;10.41;79.09
68996;BME280;56056;48.990;12.146;2023-12-22T11:09:57;96451.94;;;10.40;81.64
68996;BME280;56056;48.990;12.146;2023-12-22T11:12:25;96443.66;;;10.43;80.50
68996;BME280;56056;48.990;12.146;2023-12-22T11:14:52;96429.97;;;10.28;80.77
68996;BME280;56056;48.990;12.146;2023-12-22T11:17:20;96421.44;;;10.52;78.71
68996;BME280;56056;48.990;12.146;2023-12-22T11:19:48;96436.97;;;10.61;79.74
68996;BME280;56056;48.990;12.146;2023-12-22T11:22:16;96416.81;;;10.55;79.74
68996;BME280;56056;48.990;12.146;2023-12-22T11:24:46;96404.69;;;10.60;80.51
68996;BME280;56056;48.990;12.146;2023-12-22T11:27:17;96405.47;;;10.74;80.19
68996;BME280;56056;48.990;12.146;2023-12-22T11:29:49;96413.38;;;10.61;80.61
68996;BME280;56056;48.990;12.146;2023-12-22T11:32:16;96411.59;;;11.19;79.02
68996;BME280;56056;48.990;12.146;2023-12-22T11:34:43;96400.56;;;11.42;76.85
68996;BME280;56056;48.990;12.146;2023-12-22T11:37:13;96391.19;;;11.53;76.42
68996;BME280;56056;48.990;12.146;2023-12-22T11:39:40;96374.59;;;11.59;76.33
68996;BME280;56056;48.990;12.146;2023-12-22T11:42:08;96385.06;;;11.66;75.88
68996;BME280;56056;48.990;12.146;2023-12-22T11:44:36;96385.44;;;11.69;75.24
68996;BME280;56056;48.990;12.146;2023-12-22T11:47:07;96376.88;;;11.11;77.43
68996;BME280;56056;48.990;12.146;2023-12-22T11:49:33;96372.97;;;10.88;79.16
68996;BME280;56056;48.990;12.146;2023-12-22T11:52:09;96392.88;;;11.02;80.91
68996;BME280;56056;48.990;12.146;2023-12-22T11:54:45;96383.66;;;10.80;81.12
68996;BME280;56056;48.990;12.146;2023-12-22T11:57:36;96379.25;;;11.19;80.38
68996;BME280;56056;48.990;12.146;2023-12-22T12:00:07;96352.41;;;10.72;81.29
68996;BME280;56056;48.990;12.146;2023-12-22T12:02:34;96369.34;;;10.76;80.73
68996;BME280;56056;48.990;12.146;2023-12-22T12:05:01;96370.19;;;10.76;81.29
68996;BME280;56056;48.990;12.146;2023-12-22T12:07:43;96389.19;;;10.59;81.81
68996;BME280;56056;48.990;12.146;2023-12-22T12:10:51;96403.91;;;10.60;81.26
68996;BME280;56056;48.990;12.146;2023-12-22T12:13:22;96393.97;;;10.82;81.91
68996;BME280;56056;48.990;12.146;2023-12-22T12:15:52;96393.75;;;10.83;80.34
68996;BME280;56056;48.990;12.146;2023-12-22T12:18:22;96398.34;;;10.94;79.94
68996;BME280;56056;48.990;12.146;2023-12-22T12:20:51;96398.53;;;10.99;80.49
68996;BME280;56056;48.990;12.146;2023-12-22T12:23:17;96358.81;;;10.96;81.48
68996;BME280;56056;48.990;12.146;2023-12-22T12:25:43;96347.97;;;11.17;81.16
68996;BME280;56056;48.990;12.146;2023-12-22T12:28:09;96340.09;;;11.24;79.66
68996;BME280;56056;48.990;12.146;2023-12-22T12:30:38;96358.81;;;10.96;80.32
68996;BME280;56056;48.990;12.146;2023-12-22T12:33:08;96366.56;;;10.71;88.00
68996;BME280;56056;48.990;12.146;2023-12-22T12:35:35;96365.69;;;10.84;85.40
68996;BME280;56056;48.990;12.146;2023-12-22T12:38:01;96350.78;;;10.77;85.24
68996;BME280;56056;48.990;12.146;2023-12-22T12:40:29;96337.88;;;10.76;85.16
68996;BME280;56056;48.990;12.146;2023-12-22T12:42:56;96332.00;;;11.19;84.53
68996;BME280;56056;48.990;12.146;2023-12-22T12:45:22;96324.34;;;11.24;84.28
68996;BME280;56056;48.990;12.146;2023-12-22T12:47:55;96321.16;;;11.15;84.63
68996;BME280;56056;48.990;12.146;2023-12-22T12:50:24;96307.66;;;11.12;84.64
68996;BME280;56056;48.990;12.146;2023-12-22T12:52:51;96297.97;;;11.37;83.37
68996;BME280;56056;48.990;12.146;2023-12-22T12:55:17;96289.03;;;11.20;84.40